Time;durP1;ratioP1;P1;durP2;ratioP2;P2;SDS_P1;SDS_P2;PMS_P1;PMS_P2;Temp;Humidity;BMP_temperature;BMP_pressure;BME280_temperature;BME280_humidity;BME280_pressure;Samples;Min_cycle;Max_cycle;Signal;HPM_P1;HPM_P2
2022/11/02 00:02:15;;;;;;;6.50;2.40;;;;;;;14.01;68.43;101308.44;6247939;23;20011;-64
2022/11/02 00:04:40;;;;;;;14.70;2.50;;;;;;;14.00;68.79;101298.66;6247989;23;20012;-63
2022/11/02 00:07:06;;;;;;;10.55;2.60;;;;;;;14.01;69.21;101297.78;6248225;23;20397;-63
2022/11/02 00:09:31;;;;;;;10.50;2.70;;;;;;;14.02;69.02;101300.44;6221032;23;20008;-65
2022/11/02 00:11:56;;;;;;;13.73;3.13;;;;;;;14.08;68.53;101310.19;6247913;23;20008;-62
2022/11/02 00:14:22;;;;;;;11.82;2.63;;;;;;;14.09;68.76;101292.47;6247823;23;20058;-62
2022/11/02 00:16:47;;;;;;;12.88;2.75;;;;;;;14.07;68.46;101307.56;6247739;23;20325;-64
2022/11/02 00:19:13;;;;;;;8.95;2.65;;;;;;;14.06;68.48;101304.00;6248151;23;20102;-63
2022/11/02 00:21:40;;;;;;;10.65;2.35;;;;;;;14.07;68.60;101307.56;6247855;23;20008;-63
2022/11/02 00:24:07;;;;;;;12.32;2.70;;;;;;;14.05;68.73;101304.91;6248095;23;20079;-63
2022/11/02 00:26:34;;;;;;;13.18;2.47;;;;;;;14.06;68.53;101309.31;6248069;23;20113;-64
2022/11/02 00:28:59;;;;;;;13.25;2.72;;;;;;;14.12;67.84;101308.44;6248082;23;20000;-63
2022/11/02 00:31:25;;;;;;;10.25;2.50;;;;;;;14.14;67.63;101306.69;6220613;23;20020;-63
2022/11/02 00:33:51;;;;;;;7.10;2.10;;;;;;;14.15;67.78;101306.69;6247611;23;20012;-63
2022/11/02 00:36:17;;;;;;;10.07;2.38;;;;;;;14.18;67.44;101332.41;6247548;23;20004;-63
2022/11/02 00:38:42;;;;;;;6.78;2.47;;;;;;;14.17;67.46;101310.22;6247586;23;20031;-63
2022/11/02 00:41:08;;;;;;;8.75;2.10;;;;;;;14.17;67.43;101309.34;6247296;23;20012;-65
2022/11/02 00:43:33;;;;;;;9.77;2.38;;;;;;;14.20;67.53;101304.06;6247924;23;20019;-64
2022/11/02 00:46:00;;;;;;;10.70;2.22;;;;;;;14.21;67.27;101314.69;6221204;23;20019;-63
2022/11/02 00:48:25;;;;;;;8.35;2.10;;;;;;;14.22;66.76;101320.91;6247810;23;20014;-63
2022/11/02 00:50:51;;;;;;;8.25;2.40;;;;;;;14.23;66.67;101309.38;6247905;23;20032;-63
2022/11/02 00:53:17;;;;;;;8.00;2.20;;;;;;;14.23;66.62;101314.69;6247428;23;20099;-62
2022/11/02 00:55:42;;;;;;;12.13;2.20;;;;;;;14.19;66.30;101340.38;6247033;23;20061;-63
2022/11/02 00:58:07;;;;;;;13.27;2.60;;;;;;;14.17;66.29;101328.84;6247526;23;20008;-63
2022/11/02 01:00:33;;;;;;;9.55;2.10;;;;;;;14.15;65.96;101322.63;6247730;23;20019;-63
2022/11/02 01:03:00;;;;;;;9.43;2.05;;;;;;;14.11;66.12;101334.13;6247674;23;20031;-63
2022/11/02 01:05:26;;;;;;;13.60;2.40;;;;;;;14.04;66.17;101329.66;6247366;23;20008;-64
2022/11/02 01:07:51;;;;;;;12.80;2.45;;;;;;;13.99;66.10;101337.63;6220514;23;20083;-64
2022/11/02 01:10:17;;;;;;;8.82;2.00;;;;;;;13.98;65.86;101329.66;6247372;23;20008;-63
2022/11/02 01:12:42;;;;;;;10.25;2.20;;;;;;;13.93;66.29;101342.03;6247184;23;20006;-63
2022/11/02 01:15:09;;;;;;;8.63;2.28;;;;;;;13.89;66.83;101340.25;6247332;23;20008;-64
2022/11/02 01:17:35;;;;;;;8.20;2.40;;;;;;;13.80;67.22;101348.16;6247223;23;20430;-64
2022/11/02 01:20:00;;;;;;;10.82;2.60;;;;;;;13.78;66.68;101357.00;6247110;23;20008;-65
2022/11/02 01:22:26;;;;;;;8.73;2.20;;;;;;;13.76;66.09;101349.91;6247510;23;20039;-64
2022/11/02 01:24:51;;;;;;;7.43;2.13;;;;;;;13.75;65.65;101345.50;6247191;23;20008;-64
2022/11/02 01:27:17;;;;;;;8.52;2.30;;;;;;;13.68;65.91;101360.50;6247395;23;20114;-63
2022/11/02 01:29:42;;;;;;;14.77;2.20;;;;;;;13.65;65.88;101352.50;6246687;23;20507;-63
2022/11/02 01:32:07;;;;;;;10.45;2.15;;;;;;;13.61;65.64;101371.06;6247260;23;20061;-63
2022/11/02 01:34:33;;;;;;;12.70;2.35;;;;;;;13.63;65.41;101356.91;6247071;23;20045;-62
2022/11/02 01:36:58;;;;;;;6.47;2.20;;;;;;;13.65;65.35;101357.81;6246949;23;20050;-62
2022/11/02 01:39:23;;;;;;;10.40;2.45;;;;;;;13.54;65.95;101359.53;6246989;23;20008;-63
2022/11/02 01:41:54;;;;;;;9.00;2.28;;;;;;;13.53;65.84;101368.34;6247116;23;20005;-63
2022/11/02 01:44:34;;;;;;;10.80;2.42;;;;;;;13.47;65.62;101357.69;6246972;23;20335;-63
2022/11/02 01:47:07;;;;;;;8.73;2.15;;;;;;;13.45;65.72;101370.97;6246848;23;20365;-63
2022/11/02 01:49:36;;;;;;;8.57;2.10;;;;;;;13.37;65.63;101380.63;6247315;23;20008;-63
2022/11/02 01:54:52;;;;;;;6.15;1.90;;;;;;;13.33;66.10;101378.84;6213429;23;20024;-59
2022/11/02 01:57:20;;;;;;;6.90;2.15;;;;;;;13.26;65.75;101364.59;6216545;23;20067;-59
2022/11/02 01:59:55;;;;;;;11.63;2.20;;;;;;;13.25;66.25;101380.53;6216659;23;20338;-59
2022/11/02 02:02:23;;;;;;;10.68;2.22;;;;;;;13.21;66.37;101376.03;6216595;23;20072;-59
2022/11/02 02:04:58;;;;;;;6.70;2.22;;;;;;;13.21;66.48;101373.38;6216522;23;20015;-60
2022/11/02 02:07:25;;;;;;;9.60;2.17;;;;;;;13.22;66.68;101372.50;6216417;23;20331;-60
2022/11/02 02:09:51;;;;;;;9.45;2.10;;;;;;;13.24;66.68;101382.28;6216250;23;20000;-58
2022/11/02 02:12:17;;;;;;;9.13;2.15;;;;;;;13.24;66.76;101373.44;6216107;23;20342;-62
2022/11/02 02:14:43;;;;;;;8.63;2.22;;;;;;;13.28;66.46;101372.59;6216541;23;20001;-62
2022/11/02 02:17:34;;;;;;;7.25;2.53;;;;;;;13.26;66.69;101377.00;6216625;23;20036;-60
2022/11/02 02:20:24;;;;;;;10.95;2.15;;;;;;;13.18;66.92;101368.03;6169890;23;20397;-62
2022/11/02 02:23:18;;;;;;;6.40;1.92;;;;;;;13.18;67.04;101376.88;6216400;23;20009;-60
2022/11/02 02:25:52;;;;;;;5.65;2.08;;;;;;;13.09;67.21;101381.22;6216382;23;20389;-62
2022/11/02 02:28:38;;;;;;;7.50;2.15;;;;;;;13.01;67.65;101371.44;6216340;23;20055;-59
2022/11/02 02:31:09;;;;;;;9.90;2.03;;;;;;;12.98;68.09;101387.34;6216270;23;20028;-60
2022/11/02 02:33:43;;;;;;;10.25;2.38;;;;;;;12.95;68.10;101383.75;6216252;23;20005;-59
2022/11/02 02:36:12;;;;;;;11.40;2.58;;;;;;;12.92;68.18;101381.97;6216100;23;20028;-60
2022/11/02 02:38:46;;;;;;;11.35;2.30;;;;;;;12.93;68.44;101374.88;6216138;23;20005;-60
2022/11/02 02:41:18;;;;;;;11.93;2.08;;;;;;;12.87;68.78;101369.53;6216038;23;20422;-60
2022/11/02 02:43:51;;;;;;;10.93;2.38;;;;;;;12.84;69.12;101378.34;6216269;23;20414;-60
2022/11/02 02:46:28;;;;;;;9.60;2.03;;;;;;;12.80;69.24;101381.84;6216105;23;20079;-60
2022/11/02 02:48:56;;;;;;;7.50;2.50;;;;;;;12.77;69.39;101387.13;6216010;23;20005;-60
2022/11/02 02:51:27;;;;;;;11.77;2.25;;;;;;;12.76;69.25;101380.03;6216464;23;20362;-60
2022/11/02 02:54:03;;;;;;;11.90;2.60;;;;;;;12.75;69.20;101383.56;6215719;23;20004;-60
2022/11/02 02:56:35;;;;;;;9.35;2.15;;;;;;;12.67;69.48;101374.63;6215875;23;20096;-59
2022/11/02 02:59:23;;;;;;;11.48;2.38;;;;;;;12.72;69.17;101379.13;6216062;23;20004;-59
2022/11/02 03:01:49;;;;;;;15.75;2.60;;;;;;;12.65;69.46;101387.00;6215945;23;20006;-59
2022/11/02 03:04:15;;;;;;;10.95;2.17;;;;;;;12.65;69.48;101400.25;6216291;23;20008;-60
2022/11/02 03:06:43;;;;;;;13.90;2.53;;;;;;;12.63;69.50;101388.72;6215851;23;20004;-60
2022/11/02 03:09:29;;;;;;;10.57;2.08;;;;;;;12.61;69.14;101395.78;6215899;23;20000;-60
2022/11/02 03:11:57;;;;;;;8.48;2.38;;;;;;;12.60;69.31;101386.06;6215753;23;20461;-60
2022/11/02 03:14:34;;;;;;;9.27;2.10;;;;;;;12.58;69.35;101391.31;6215806;23;20307;-60
2022/11/02 03:17:12;;;;;;;10.63;2.60;;;;;;;12.57;69.37;101410.75;6215872;23;20001;-60
2022/11/02 03:19:52;;;;;;;10.65;2.30;;;;;;;12.56;69.10;101402.81;6215625;23;20013;-60
2022/11/02 03:22:29;;;;;;;14.35;2.50;;;;;;;12.57;68.91;101401.91;6216143;23;20012;-60
2022/11/02 03:25:02;;;;;;;12.75;2.95;;;;;;;12.55;69.07;101399.25;6215906;23;20008;-60
2022/11/02 03:27:37;;;;;;;14.30;2.53;;;;;;;12.57;68.93;101407.22;6216472;23;20016;-59
2022/11/02 03:30:06;;;;;;;16.63;2.70;;;;;;;12.56;69.07;101418.72;6215703;23;20423;-59
2022/11/02 03:33:07;;;;;;;8.77;2.45;;;;;;;12.59;68.81;101421.38;6215736;23;20083;-60
2022/11/02 03:35:33;;;;;;;13.55;2.75;;;;;;;12.64;68.59;101422.34;6215720;23;20461;-60
2022/11/02 03:38:04;;;;;;;16.77;3.05;;;;;;;12.66;68.33;101424.13;6215571;23;20008;-60
2022/11/02 03:40:38;;;;;;;12.05;2.67;;;;;;;12.66;68.38;101431.19;6215770;23;20335;-59
2022/11/02 03:43:06;;;;;;;14.52;2.78;;;;;;;12.64;68.34;101417.94;6215540;23;20004;-59
2022/11/02 03:45:38;;;;;;;16.27;3.22;;;;;;;12.65;68.30;101417.03;6215763;23;20005;-60
2022/11/02 03:48:05;;;;;;;;;;;;;;;12.63;68.22;101439.97;6216273;23;20426;-60
2022/11/02 03:50:32;;;;;;;14.93;2.55;;;;;;;12.61;68.11;101430.25;6215806;23;19904;-60
2022/11/02 03:53:08;;;;;;;15.57;2.75;;;;;;;12.54;68.77;101440.75;6215684;23;20012;-59
2022/11/02 03:55:40;;;;;;;10.15;2.53;;;;;;;12.62;68.43;101437.31;6215362;23;20084;-60
2022/11/02 03:58:10;;;;;;;9.80;2.38;;;;;;;12.60;68.58;101433.78;6215725;23;20013;-60
2022/11/02 04:00:37;;;;;;;14.63;2.42;;;;;;;12.54;68.74;101431.91;6215728;23;20411;-60
2022/11/02 04:03:06;;;;;;;10.15;2.70;;;;;;;12.53;68.84;101446.94;6215900;23;20009;-60
2022/11/02 04:05:34;;;;;;;13.90;2.67;;;;;;;12.53;68.98;101446.06;6215656;23;20001;-60
2022/11/02 04:16:13;;;;;;;9.93;2.33;;;;;;;12.52;69.50;101465.50;6215538;23;20067;-60
2022/11/02 04:21:22;;;;;;;12.68;2.47;;;;;;;12.42;70.40;101477.75;6215615;23;20067;-60
2022/11/02 04:26:32;;;;;;;15.15;2.88;;;;;;;12.37;70.58;101479.41;6215600;23;20028;-60
2022/11/02 04:28:57;;;;;;;15.32;3.03;;;;;;;12.38;70.57;101481.22;6215788;23;20008;-60
2022/11/02 04:31:23;;;;;;;13.48;3.13;;;;;;;12.41;70.79;101493.59;6216956;23;20422;-60
2022/11/02 04:33:48;;;;;;;11.48;2.60;;;;;;;12.41;70.38;101498.91;6217457;23;20370;-60
2022/11/02 04:36:13;;;;;;;12.60;2.55;;;;;;;12.42;70.25;101495.38;6217222;23;20442;-59
2022/11/02 04:38:39;;;;;;;16.77;2.97;;;;;;;12.41;70.34;101501.56;6217558;23;20008;-59
2022/11/02 04:43:55;;;;;;;14.13;2.33;;;;;;;12.33;70.45;101508.50;6217482;23;20017;-59
2022/11/02 04:46:21;;;;;;;17.10;3.03;;;;;;;12.34;70.77;101520.91;6217202;23;20012;-61
2022/11/02 04:48:47;;;;;;;14.57;2.50;;;;;;;12.34;70.39;101518.25;6217470;23;20372;-60
2022/11/02 04:51:13;;;;;;;11.98;2.42;;;;;;;12.34;70.47;101527.09;6217490;23;20012;-60
2022/11/02 04:53:38;;;;;;;13.98;2.50;;;;;;;12.34;70.27;101526.22;6216983;23;20070;-60
2022/11/02 04:56:04;;;;;;;15.38;2.70;;;;;;;12.35;70.42;101530.63;6217124;23;20401;-63
2022/11/02 04:58:30;;;;;;;18.33;3.40;;;;;;;12.32;70.40;101533.22;6217071;23;20009;-62
2022/11/02 05:00:55;;;;;;;8.75;2.45;;;;;;;12.30;70.46;101537.63;6217117;23;20067;-62
2022/11/02 05:03:20;;;;;;;17.80;3.03;;;;;;;12.31;70.23;101532.34;6190640;23;20430;-65
2022/11/02 05:05:46;;;;;;;13.45;2.67;;;;;;;12.27;70.62;101544.66;6217114;23;20449;-60
2022/11/02 05:08:11;;;;;;;14.32;2.50;;;;;;;12.24;70.88;101538.41;6216981;23;20083;-61
2022/11/02 05:10:37;;;;;;;10.77;2.38;;;;;;;12.23;71.00;101542.81;6216998;23;20441;-61
2022/11/02 05:13:02;;;;;;;20.88;3.38;;;;;;;12.25;70.53;101549.06;6216725;23;20008;-60
2022/11/02 05:15:28;;;;;;;13.60;2.78;;;;;;;12.23;71.14;101547.25;6216937;23;20012;-59
2022/11/02 05:17:53;;;;;;;12.80;2.60;;;;;;;12.28;70.86;101553.50;6216935;23;20036;-59
2022/11/02 05:20:18;;;;;;;11.27;2.72;;;;;;;12.28;70.61;101567.63;6216908;23;20005;-60
2022/11/02 05:22:44;;;;;;;15.63;2.78;;;;;;;12.32;70.19;101571.22;6216845;23;20005;-60
2022/11/02 05:25:10;;;;;;;11.98;2.45;;;;;;;12.32;70.38;101570.34;6216815;23;20395;-60
2022/11/02 05:27:36;;;;;;;12.40;2.55;;;;;;;12.28;70.34;101570.28;6217161;23;20012;-60
2022/11/02 05:30:03;;;;;;;10.35;2.50;;;;;;;12.23;70.74;101579.03;6190198;23;20005;-60
2022/11/02 05:32:28;;;;;;;11.10;2.75;;;;;;;12.23;70.39;101584.34;6216728;23;20027;-60
2022/11/02 05:34:53;;;;;;;16.27;2.88;;;;;;;12.22;70.26;101603.75;6216835;23;20008;-61
2022/11/02 05:37:19;;;;;;;12.93;2.80;;;;;;;12.21;70.26;101581.66;6216861;23;20322;-60
2022/11/02 05:39:44;;;;;;;13.57;3.00;;;;;;;12.23;70.16;101594.94;6216714;23;20094;-60
2022/11/02 05:42:10;;;;;;;11.38;2.40;;;;;;;12.22;69.82;101602.00;6216111;23;20468;-60
2022/11/02 05:44:35;;;;;;;10.93;2.40;;;;;;;12.24;70.00;101607.31;6216769;23;20008;-60
2022/11/02 05:47:02;;;;;;;17.00;2.95;;;;;;;12.21;69.93;101607.28;6216644;23;20374;-60
2022/11/02 05:49:27;;;;;;;17.38;2.40;;;;;;;12.21;69.92;101616.13;6216850;23;20035;-60
2022/11/02 05:51:53;;;;;;;12.88;2.88;;;;;;;12.17;70.29;101610.75;6216965;23;20470;-60
2022/11/02 05:54:18;;;;;;;9.85;2.55;;;;;;;12.14;70.12;101611.56;6216499;23;20019;-60
2022/11/02 05:56:43;;;;;;;11.60;2.50;;;;;;;12.11;70.37;101621.22;6216397;23;20091;-60
2022/11/02 05:59:09;;;;;;;11.65;2.70;;;;;;;12.09;70.02;101622.97;6216438;23;20004;-60
2022/11/02 06:01:34;;;;;;;10.30;2.53;;;;;;;12.03;70.20;101636.97;6216792;23;20367;-60
2022/11/02 06:04:00;;;;;;;12.80;2.72;;;;;;;11.97;70.62;101635.13;6216508;23;20487;-61
2022/11/02 06:06:25;;;;;;;14.23;2.85;;;;;;;11.92;70.79;101646.50;6216575;23;20107;-59
2022/11/02 06:08:51;;;;;;;11.63;2.50;;;;;;;11.88;71.07;101639.38;6216445;23;20043;-60
2022/11/02 06:11:17;;;;;;;12.98;2.78;;;;;;;11.86;71.18;101641.09;6215750;23;20017;-60
2022/11/02 06:13:42;;;;;;;10.77;2.60;;;;;;;11.81;71.56;101654.22;6216149;23;20012;-61
2022/11/02 06:16:10;;;;;;;16.55;3.05;;;;;;;11.82;71.17;101655.09;6216276;23;20064;-60
2022/11/02 06:18:36;;;;;;;8.35;2.40;;;;;;;11.76;71.99;101692.94;6216288;23;20012;-60
2022/11/02 06:21:02;;;;;;;8.75;2.22;;;;;;;11.68;72.01;101658.38;6216248;23;20479;-59
2022/11/02 06:23:28;;;;;;;13.80;2.25;;;;;;;11.67;72.25;101666.31;6216340;23;20078;-61
2022/11/02 06:25:56;;;;;;;11.85;2.35;;;;;;;11.64;72.07;101677.72;6216647;23;20005;-61
2022/11/02 06:28:22;;;;;;;11.80;2.60;;;;;;;11.59;72.66;101689.97;6216623;23;20011;-60
2022/11/02 06:30:48;;;;;;;10.25;2.47;;;;;;;11.59;72.10;101687.31;6216197;23;20414;-60
2022/11/02 06:33:14;;;;;;;18.92;3.10;;;;;;;11.57;72.51;101702.31;6216215;23;20000;-60
2022/11/02 06:35:44;;;;;;;10.68;2.17;;;;;;;11.54;72.56;101702.22;6216113;23;20005;-60
2022/11/02 06:38:10;;;;;;;12.30;2.50;;;;;;;11.53;72.58;101708.38;6216545;23;20019;-60
2022/11/02 06:40:35;;;;;;;11.95;2.90;;;;;;;11.46;73.41;101715.28;6216283;23;20004;-60
2022/11/02 06:43:01;;;;;;;18.92;2.63;;;;;;;11.42;73.35;101724.03;6189654;23;20415;-60
2022/11/02 06:45:26;;;;;;;14.57;2.70;;;;;;;11.41;73.29;101730.19;6216197;23;20019;-62
2022/11/02 06:47:51;;;;;;;15.02;3.00;;;;;;;11.40;73.19;101735.47;6216094;23;20047;-60
2022/11/02 06:50:17;;;;;;;14.15;2.80;;;;;;;11.34;73.93;101741.50;6216046;23;20446;-60
2022/11/02 06:52:46;;;;;;;14.38;2.50;;;;;;;11.36;73.93;101747.72;6215959;23;20009;-60
2022/11/02 06:55:13;;;;;;;14.10;2.70;;;;;;;11.35;73.87;101758.25;6215209;23;20020;-60
2022/11/02 06:57:40;;;;;;;10.63;2.38;;;;;;;11.31;74.14;101762.63;6215938;23;20083;-60
2022/11/02 07:00:11;;;;;;;15.50;2.60;;;;;;;11.34;73.63;101772.34;6215925;23;20331;-60
2022/11/02 07:02:36;;;;;;;9.65;2.42;;;;;;;11.35;73.80;101777.69;6215989;23;20037;-60
2022/11/02 07:05:02;;;;;;;13.40;2.60;;;;;;;11.33;73.79;101781.16;6215938;23;20004;-59
2022/11/02 07:07:27;;;;;;;11.93;2.53;;;;;;;11.36;73.83;101778.59;6215819;23;20446;-60
2022/11/02 07:09:53;;;;;;;14.43;2.50;;;;;;;11.37;73.76;101785.66;6189308;23;20015;-60
2022/11/02 07:12:18;;;;;;;15.13;2.72;;;;;;;11.33;73.22;101795.28;6215567;23;20338;-59
2022/11/02 07:14:44;;;;;;;9.98;2.60;;;;;;;11.41;73.21;101808.69;6215883;23;20012;-60
2022/11/02 07:17:09;;;;;;;8.55;2.38;;;;;;;11.39;73.43;101815.69;6215723;23;20004;-61
2022/11/02 07:19:35;;;;;;;13.52;2.42;;;;;;;11.42;73.44;101816.66;6215762;23;20008;-60
2022/11/02 07:22:00;;;;;;;14.32;2.47;;;;;;;11.45;73.56;101815.84;6216089;23;20427;-60
2022/11/02 07:24:26;;;;;;;11.45;2.55;;;;;;;11.44;73.40;101835.25;6215909;23;20486;-60
2022/11/02 07:26:51;;;;;;;11.13;2.22;;;;;;;11.51;72.92;101837.13;6215699;23;20055;-60
2022/11/02 07:29:17;;;;;;;11.07;2.22;;;;;;;11.56;72.86;101846.06;6215751;23;20015;-60
2022/11/02 07:31:43;;;;;;;17.58;2.80;;;;;;;11.60;72.92;101842.63;6215758;23;20009;-61
2022/11/02 07:34:09;;;;;;;16.38;2.65;;;;;;;11.66;72.53;101849.84;6215735;23;20001;-60
2022/11/02 07:36:34;;;;;;;14.35;2.55;;;;;;;11.69;72.80;101840.22;6215682;23;20012;-60
2022/11/02 07:38:59;;;;;;;11.15;2.50;;;;;;;11.75;72.47;101845.66;6215699;23;20009;-61
2022/11/02 07:41:25;;;;;;;10.48;2.33;;;;;;;11.81;72.72;101854.56;6215467;23;20005;-61
2022/11/02 07:43:50;;;;;;;13.88;2.88;;;;;;;11.88;72.29;101849.47;6215685;23;20006;-60
2022/11/02 07:46:15;;;;;;;12.82;2.50;;;;;;;11.98;71.95;101864.69;6215669;23;20373;-60
2022/11/02 07:48:41;;;;;;;8.45;2.25;;;;;;;12.09;71.87;101858.75;6215529;23;20016;-60
2022/11/02 07:51:07;;;;;;;12.32;2.55;;;;;;;12.26;71.31;101867.94;6215688;23;20120;-61
2022/11/02 07:53:32;;;;;;;9.52;2.58;;;;;;;12.36;70.97;101861.06;6215730;23;20471;-60
2022/11/02 07:56:02;;;;;;;11.48;2.70;;;;;;;12.51;70.37;101867.56;6215354;23;20070;-60
2022/11/02 07:58:28;;;;;;;10.10;2.70;;;;;;;12.67;69.98;101863.41;6215643;23;20044;-60
2022/11/02 08:00:57;;;;;;;17.98;3.08;;;;;;;12.78;69.87;101871.59;6215613;23;20055;-60
2022/11/02 08:03:22;;;;;;;11.95;2.60;;;;;;;12.98;69.22;101880.78;6215618;23;20015;-60
2022/11/02 08:05:48;;;;;;;12.85;2.53;;;;;;;13.08;68.66;101873.00;6216756;23;20008;-60
2022/11/02 08:08:16;;;;;;;12.35;2.90;;;;;;;13.20;68.21;101871.44;6217569;23;20035;-60
2022/11/02 08:10:42;;;;;;;13.30;2.83;;;;;;;13.33;67.99;101872.56;6217562;23;20487;-60
2022/11/02 08:13:09;;;;;;;9.25;2.70;;;;;;;13.51;67.25;101874.59;6217572;23;20039;-60
2022/11/02 08:15:43;;;;;;;15.52;2.60;;;;;;;13.73;66.49;101881.13;6217263;23;20013;-60
2022/11/02 08:18:14;;;;;;;12.27;2.78;;;;;;;13.86;66.07;101880.41;6217520;23;20008;-59
2022/11/02 08:20:39;;;;;;;10.52;2.67;;;;;;;14.04;65.56;101888.63;6217551;23;20036;-60
2022/11/02 08:23:06;;;;;;;11.68;2.40;;;;;;;14.22;64.88;101895.97;6217550;23;20067;-61
2022/11/02 08:25:32;;;;;;;9.95;2.50;;;;;;;14.39;63.84;101904.16;6217595;23;20039;-61
2022/11/02 08:27:58;;;;;;;17.63;3.08;;;;;;;14.43;64.19;101882.03;6217561;23;20087;-60
2022/11/02 08:30:25;;;;;;;10.63;2.70;;;;;;;14.44;63.57;101899.78;6217401;23;20099;-60
2022/11/02 08:32:51;;;;;;;11.20;2.50;;;;;;;14.55;63.93;101904.34;6217687;23;20013;-60
2022/11/02 08:35:16;;;;;;;11.43;2.47;;;;;;;14.80;63.19;101900.19;6217363;23;20500;-60
2022/11/02 08:37:41;;;;;;;10.48;2.42;;;;;;;14.96;61.93;101910.13;6217230;23;20039;-60
2022/11/02 08:40:07;;;;;;;13.60;2.88;;;;;;;14.97;61.98;101901.25;6217242;23;20012;-60
2022/11/02 08:42:33;;;;;;;13.23;3.03;;;;;;;14.93;61.59;101899.44;6216901;23;20005;-60
2022/11/02 08:44:58;;;;;;;11.60;2.58;;;;;;;14.99;61.34;101905.72;6217589;23;20103;-60
2022/11/02 08:47:24;;;;;;;13.60;2.75;;;;;;;15.08;60.89;101912.03;6216983;23;20327;-60
2022/11/02 08:49:50;;;;;;;13.13;2.65;;;;;;;15.30;60.08;101918.41;6217124;23;20086;-61
2022/11/02 08:52:17;;;;;;;13.82;2.90;;;;;;;15.42;59.14;101922.09;6217450;23;20079;-60
2022/11/02 08:54:43;;;;;;;11.75;2.80;;;;;;;15.53;59.24;101917.72;6217079;23;20351;-61
2022/11/02 08:57:08;;;;;;;15.45;3.00;;;;;;;15.70;58.80;101914.31;6217120;23;20004;-60
2022/11/02 08:59:34;;;;;;;13.93;2.50;;;;;;;15.84;58.12;101917.06;6217041;23;20009;-60
2022/11/02 09:01:59;;;;;;;13.75;2.80;;;;;;;15.88;57.40;101913.53;6217169;23;20011;-60
2022/11/02 09:04:25;;;;;;;8.70;2.28;;;;;;;15.96;56.71;101925.13;6217006;23;20084;-61
2022/11/02 09:06:50;;;;;;;10.32;2.60;;;;;;;15.97;55.81;101925.16;6216982;23;20015;-61
2022/11/02 09:09:16;;;;;;;11.38;2.50;;;;;;;16.03;56.13;101925.19;6217348;23;20092;-60
2022/11/02 09:11:41;;;;;;;11.07;2.83;;;;;;;16.04;56.31;101915.41;6216588;23;20007;-60
2022/11/02 09:14:06;;;;;;;11.50;2.78;;;;;;;16.09;55.74;101921.66;6217424;23;20373;-60
2022/11/02 09:16:32;;;;;;;11.20;2.67;;;;;;;15.99;56.45;101926.03;6216740;23;20013;-61
2022/11/02 09:18:58;;;;;;;14.00;2.85;;;;;;;16.12;56.13;101928.78;6217013;23;20009;-61
2022/11/02 09:21:24;;;;;;;10.95;3.00;;;;;;;16.25;56.01;101936.84;6190614;23;20418;-60
2022/11/02 09:23:49;;;;;;;12.32;2.78;;;;;;;16.38;55.97;101929.78;6216866;23;20043;-60
2022/11/02 09:26:15;;;;;;;11.63;2.70;;;;;;;16.50;55.51;101928.97;6217203;23;20095;-60
2022/11/02 09:28:40;;;;;;;12.63;2.83;;;;;;;16.68;55.03;101936.13;6216873;23;20147;-61
2022/11/02 09:31:05;;;;;;;15.25;2.90;;;;;;;16.61;54.32;101935.19;6216923;23;20005;-60
2022/11/02 09:33:33;;;;;;;11.20;2.60;;;;;;;16.73;54.11;101934.38;6216936;23;20013;-61
2022/11/02 09:36:02;;;;;;;16.15;2.78;;;;;;;16.78;54.73;101944.19;6216739;23;20024;-60
2022/11/02 09:38:27;;;;;;;16.13;3.08;;;;;;;16.95;54.77;101935.31;6216681;23;20435;-60
2022/11/02 09:40:58;;;;;;;13.05;3.08;;;;;;;17.01;53.76;101954.94;6216785;23;20028;-60
2022/11/02 09:43:30;;;;;;;12.82;2.78;;;;;;;16.96;54.55;101942.47;6216503;23;20320;-60
2022/11/02 09:46:03;;;;;;;14.98;2.75;;;;;;;16.99;54.09;101948.69;6216773;23;20009;-61
2022/11/02 09:48:37;;;;;;;13.55;2.75;;;;;;;17.30;53.79;101953.19;6216652;23;20054;-61
2022/11/02 09:51:05;;;;;;;19.63;3.05;;;;;;;17.22;53.60;101962.09;6216753;23;20015;-61
2022/11/02 09:54:08;;;;;;;12.80;3.00;;;;;;;16.77;54.40;101950.41;6216947;23;20063;-60
2022/11/02 09:56:34;;;;;;;;;;;;;;;16.50;55.31;101956.53;6216988;23;20330;-61
2022/11/02 09:59:04;;;;;;;13.25;2.70;;;;;;;16.21;56.11;101958.16;6216984;23;20322;-60
2022/11/02 10:02:03;;;;;;;12.73;2.95;;;;;;;16.36;56.13;101966.25;6216609;23;20008;-61
2022/11/02 10:05:02;;;;;;;9.23;2.80;;;;;;;16.69;55.31;101957.47;6216387;23;20008;-60
2022/11/02 10:08:05;;;;;;;19.55;3.05;;;;;;;16.58;55.20;101974.34;6216828;23;20012;-61
2022/11/02 10:10:36;;;;;;;14.07;3.13;;;;;;;16.56;55.47;101965.44;6216460;23;20044;-61
2022/11/02 10:13:32;;;;;;;12.80;3.00;;;;;;;16.82;55.19;101971.78;6216478;23;20373;-60
2022/11/02 10:16:14;;;;;;;12.10;2.58;;;;;;;17.09;54.00;101979.00;6216682;23;20044;-61
2022/11/02 10:18:41;;;;;;;17.17;2.85;;;;;;;17.27;52.05;101983.47;6216735;23;20088;-61
2022/11/02 10:21:18;;;;;;;14.63;3.03;;;;;;;17.42;53.08;101986.13;6216395;23;20328;-63
2022/11/02 10:23:51;;;;;;;7.40;2.53;;;;;;;17.73;51.04;101989.72;6216430;23;20391;-61
2022/11/02 10:26:27;;;;;;;13.57;2.90;;;;;;;17.89;51.17;101989.72;6216395;23;20110;-61
2022/11/02 10:29:26;;;;;;;15.23;2.75;;;;;;;17.97;50.60;101993.28;6216252;23;20004;-61
2022/11/02 10:31:52;;;;;;;16.05;2.88;;;;;;;18.08;49.31;101990.63;6168711;23;20009;-61
2022/11/02 10:34:24;;;;;;;12.75;2.92;;;;;;;17.73;49.23;101987.06;6216228;23;20015;-60
2022/11/02 10:36:53;;;;;;;14.50;2.88;;;;;;;17.58;49.90;101986.16;6216173;23;20027;-61
2022/11/02 10:39:48;;;;;;;14.27;2.67;;;;;;;17.52;50.92;101987.06;6216278;23;20032;-61
2022/11/02 10:42:39;;;;;;;13.75;2.97;;;;;;;17.80;50.05;101990.63;6215880;23;20028;-60
2022/11/02 10:45:19;;;;;;;21.80;3.30;;;;;;;17.88;49.89;101991.53;6216103;23;20020;-60
2022/11/02 10:48:20;;;;;;;12.40;2.97;;;;;;;18.01;49.50;101992.41;6216068;23;20012;-61
2022/11/02 10:51:07;;;;;;;14.95;3.13;;;;;;;18.09;48.83;101992.38;6216413;23;20017;-60
2022/11/02 10:53:45;;;;;;;11.85;2.85;;;;;;;18.27;48.58;101998.56;6216362;23;20004;-60
2022/11/02 10:56:19;;;;;;;13.32;2.70;;;;;;;18.36;48.25;102004.78;6215705;23;20013;-60
2022/11/02 10:59:12;;;;;;;8.23;2.22;;;;;;;18.17;48.26;101999.50;6216122;23;20008;-60
2022/11/02 11:01:45;;;;;;;14.30;2.90;;;;;;;18.36;46.88;102004.78;6216317;23;20005;-64
2022/11/02 11:04:25;;;;;;;11.27;2.83;;;;;;;18.78;46.91;101998.44;6216317;23;20005;-61
2022/11/02 11:06:53;;;;;;;15.43;2.85;;;;;;;18.91;44.07;102007.28;6215981;23;20000;-61
2022/11/02 11:09:29;;;;;;;9.65;2.85;;;;;;;18.85;45.21;102007.34;6215843;23;20415;-61
2022/11/02 11:11:54;;;;;;;9.25;2.58;;;;;;;19.08;42.82;102001.84;6215642;23;20362;-60
2022/11/02 11:14:22;;;;;;;10.25;2.47;;;;;;;19.22;42.95;102008.00;6216220;23;20047;-60
2022/11/02 11:16:52;;;;;;;10.80;2.60;;;;;;;19.32;42.53;102007.06;6216191;23;20016;-60
2022/11/02 11:19:33;;;;;;;8.45;2.42;;;;;;;19.56;42.63;102005.97;6216108;23;20011;-60
2022/11/02 11:21:58;;;;;;;10.85;2.80;;;;;;;19.75;42.24;102002.28;6216193;23;20008;-61
2022/11/02 11:24:33;;;;;;;12.40;2.92;;;;;;;19.89;42.27;102003.94;6215846;23;20502;-60
2022/11/02 11:27:25;;;;;;;10.45;2.60;;;;;;;20.33;43.09;102006.16;6216130;23;20008;-60
2022/11/02 11:29:53;;;;;;;8.70;2.78;;;;;;;20.62;40.15;102003.16;6209778;23;20465;-60
2022/11/02 11:32:24;;;;;;;9.38;2.50;;;;;;;20.88;40.08;101989.41;6215600;23;20086;-60
2022/11/02 11:34:57;;;;;;;7.65;2.33;;;;;;;20.99;39.69;101992.84;6215652;23;20354;-61
2022/11/02 11:37:24;;;;;;;8.15;2.38;;;;;;;21.19;38.92;101988.94;6215706;23;20138;-60
2022/11/02 11:39:56;;;;;;;9.52;2.72;;;;;;;20.58;38.97;101984.44;6215543;23;20374;-61
2022/11/02 11:42:24;;;;;;;;;;;;;;;20.82;41.42;101985.91;6216330;23;20009;-61
2022/11/02 11:44:58;;;;;;;10.70;2.47;;;;;;;20.89;39.49;101974.16;6215658;23;19968;-61
2022/11/02 11:47:31;;;;;;;9.38;2.53;;;;;;;21.02;39.27;101971.28;6216071;23;20326;-60
2022/11/02 11:50:01;;;;;;;14.73;2.70;;;;;;;21.36;38.49;101975.28;6216041;23;20008;-60